Time;durP1;ratioP1;P1;durP2;ratioP2;P2;SDS_P1;SDS_P2;PMS_P1;PMS_P2;Temp;Humidity;BMP_temperature;BMP_pressure;BME280_temperature;BME280_humidity;BME280_pressure;Samples;Min_cycle;Max_cycle;Signal;HPM_P1;HPM_P2
2023/10/22 00:02:25;;;;;;;5.07;1.05;;;12.90;86.60;;;;;;4979776;28;20043;-86
2023/10/22 00:04:50;;;;;;;6.05;1.75;;;13.00;86.80;;;;;;4944373;28;20093;-87
2023/10/22 00:07:16;;;;;;;4.47;1.13;;;13.00;86.80;;;;;;4960827;28;20078;-85
2023/10/22 00:09:42;;;;;;;6.30;1.38;;;12.90;86.70;;;;;;4946979;28;20129;-86
2023/10/22 00:12:08;;;;;;;4.20;1.10;;;12.90;86.80;;;;;;4929815;28;20038;-86
2023/10/22 00:14:34;;;;;;;4.75;1.23;;;12.80;86.80;;;;;;4976696;28;20499;-86
2023/10/22 00:17:00;;;;;;;5.32;1.50;;;12.90;87.00;;;;;;4960630;28;20049;-86
2023/10/22 00:19:26;;;;;;;7.63;1.70;;;12.80;87.00;;;;;;4944544;28;20045;-86
2023/10/22 00:21:51;;;;;;;3.25;1.05;;;12.80;86.90;;;;;;4928868;28;20101;-86
2023/10/22 00:24:17;;;;;;;4.82;1.20;;;12.90;86.90;;;;;;4928519;28;20043;-84
2023/10/22 00:26:43;;;;;;;5.60;1.35;;;12.90;86.90;;;;;;4976305;28;20180;-83
2023/10/22 00:29:08;;;;;;;5.00;1.20;;;12.80;87.10;;;;;;4944278;28;20453;-83
2023/10/22 00:31:34;;;;;;;4.13;0.90;;;12.80;86.80;;;;;;4928644;28;20113;-84
2023/10/22 00:34:00;;;;;;;4.57;1.10;;;12.90;86.90;;;;;;4976188;28;20046;-83
2023/10/22 00:36:25;;;;;;;3.22;1.00;;;12.90;86.80;;;;;;4961335;28;20042;-84
2023/10/22 00:38:51;;;;;;;4.93;1.08;;;12.90;86.90;;;;;;4928511;28;20089;-83
2023/10/22 00:41:17;;;;;;;2.70;1.10;;;12.90;86.90;;;;;;4976233;28;20046;-83
2023/10/22 00:43:43;;;;;;;7.35;1.20;;;13.00;86.80;;;;;;4959762;28;20042;-83
2023/10/22 00:46:17;;;;;;;4.30;0.80;;;13.00;87.30;;;;;;4977893;28;20054;-83
2023/10/22 00:48:43;;;;;;;;;;;13.00;87.50;;;;;;4984320;28;20042;-83
2023/10/22 00:51:08;;;;;;;2.47;0.85;;;12.90;88.50;;;;;;4995801;28;19972;-84
2023/10/22 00:53:34;;;;;;;6.60;1.00;;;12.80;89.10;;;;;;4931683;28;20045;-83
2023/10/22 00:56:00;;;;;;;2.45;0.90;;;12.70;89.40;;;;;;4965145;28;20054;-84
2023/10/22 00:58:26;;;;;;;4.50;1.13;;;12.60;90.70;;;;;;4963895;28;20047;-84
2023/10/22 01:00:52;;;;;;;6.57;1.02;;;12.50;90.50;;;;;;4964650;28;20042;-85
2023/10/22 01:03:18;;;;;;;5.25;1.42;;;12.50;92.30;;;;;;4965282;28;20056;-84
2023/10/22 01:05:44;;;;;;;6.20;1.13;;;12.40;92.10;;;;;;4957398;28;20034;-84
2023/10/22 01:08:11;;;;;;;6.30;1.70;;;12.20;93.10;;;;;;4989119;28;20053;-84
2023/10/22 01:10:37;;;;;;;4.10;1.10;;;12.20;93.10;;;;;;5005412;28;20030;-84
2023/10/22 01:13:03;;;;;;;6.03;1.10;;;12.10;94.00;;;;;;4972526;28;20027;-85
2023/10/22 01:15:29;;;;;;;6.50;1.20;;;12.00;93.90;;;;;;4988373;28;20073;-85
2023/10/22 01:17:55;;;;;;;3.75;1.33;;;12.00;93.80;;;;;;5004754;28;20065;-84
2023/10/22 01:20:21;;;;;;;3.95;1.70;;;11.90;95.00;;;;;;4956614;28;20031;-85
2023/10/22 01:22:47;;;;;;;2.92;1.02;;;11.90;94.90;;;;;;4998117;28;20517;-86
2023/10/22 01:25:13;;;;;;;8.63;1.80;;;11.80;94.50;;;;;;4933200;28;20039;-85
2023/10/22 01:27:40;;;;;;;4.85;1.40;;;11.90;94.40;;;;;;4980130;28;20073;-85
2023/10/22 01:30:06;;;;;;;4.68;1.20;;;11.80;95.50;;;;;;4963450;28;20048;-85
2023/10/22 01:32:33;;;;;;;3.72;1.50;;;11.80;95.20;;;;;;4933918;28;20044;-85
2023/10/22 01:35:02;;;;;;;4.75;1.23;;;11.80;95.40;;;;;;4979696;28;20475;-85
2023/10/22 01:37:28;;;;;;;2.85;1.33;;;11.80;95.40;;;;;;4979533;28;20042;-85
2023/10/22 01:39:54;;;;;;;3.78;1.40;;;11.70;95.60;;;;;;4931107;28;20096;-84
2023/10/22 01:42:20;;;;;;;5.88;1.13;;;11.70;95.80;;;;;;4947728;28;20118;-85
2023/10/22 01:44:46;;;;;;;6.07;1.20;;;11.80;95.70;;;;;;4979411;28;20035;-85
2023/10/22 01:47:11;;;;;;;5.03;1.30;;;11.80;95.90;;;;;;4962626;28;20413;-85
2023/10/22 01:49:38;;;;;;;4.63;1.50;;;11.70;95.80;;;;;;4978486;28;20092;-85
2023/10/22 01:52:04;;;;;;;4.97;1.52;;;11.70;96.30;;;;;;4962616;28;20045;-85
2023/10/22 01:54:30;;;;;;;5.25;1.63;;;11.70;96.50;;;;;;4929035;28;20059;-85
2023/10/22 01:56:55;;;;;;;4.30;1.52;;;11.70;97.00;;;;;;4980593;28;20054;-85
2023/10/22 01:59:21;;;;;;;3.20;1.80;;;11.70;96.90;;;;;;4980488;28;20049;-85
2023/10/22 02:01:47;;;;;;;4.78;1.42;;;11.60;96.60;;;;;;4978546;28;20133;-85
2023/10/22 02:04:13;;;;;;;4.15;2.33;;;11.60;96.70;;;;;;4962150;28;20498;-85
2023/10/22 02:06:38;;;;;;;4.10;1.98;;;11.70;96.30;;;;;;4963579;28;20045;-85
2023/10/22 02:09:04;;;;;;;7.47;2.17;;;11.60;96.90;;;;;;4964001;28;20038;-86
2023/10/22 02:11:30;;;;;;;4.75;1.83;;;11.60;97.10;;;;;;4946695;28;20417;-85
2023/10/22 02:13:56;;;;;;;3.42;1.92;;;11.60;97.30;;;;;;4977953;28;20042;-85
2023/10/22 02:16:23;;;;;;;2.80;1.65;;;11.60;97.50;;;;;;4977893;28;20048;-85
2023/10/22 02:18:49;;;;;;;4.35;2.05;;;11.60;97.30;;;;;;4978046;28;20046;-86
2023/10/22 02:21:15;;;;;;;4.95;1.88;;;11.50;97.20;;;;;;4961795;28;20085;-85
2023/10/22 02:23:41;;;;;;;4.78;1.63;;;11.60;97.90;;;;;;4961810;28;20125;-85
2023/10/22 02:26:07;;;;;;;4.43;2.28;;;11.50;97.50;;;;;;4961719;28;20133;-86
2023/10/22 02:28:33;;;;;;;9.15;2.25;;;11.60;97.30;;;;;;4977842;28;20556;-85
2023/10/22 02:30:59;;;;;;;6.32;2.05;;;11.50;97.50;;;;;;4961756;28;20039;-85
2023/10/22 02:33:25;;;;;;;5.13;2.60;;;11.50;97.40;;;;;;4962012;28;20042;-85
2023/10/22 02:35:51;;;;;;;4.00;2.25;;;11.60;97.70;;;;;;4978282;28;20189;-85
2023/10/22 02:38:17;;;;;;;5.00;2.70;;;11.50;97.70;;;;;;4977978;28;20042;-85
2023/10/22 02:40:48;;;;;;;4.13;2.25;;;11.50;97.60;;;;;;4995220;28;20057;-85
2023/10/22 02:43:14;;;;;;;4.25;2.30;;;11.50;97.80;;;;;;4978206;28;20042;-85
2023/10/22 02:46:00;;;;;;;4.72;2.03;;;11.50;97.80;;;;;;4977709;28;20034;-85
2023/10/22 02:48:26;;;;;;;5.93;2.45;;;11.50;97.50;;;;;;4961752;28;20038;-85
2023/10/22 02:50:52;;;;;;;2.65;2.35;;;11.60;97.30;;;;;;4929717;28;20491;-84
2023/10/22 02:53:17;;;;;;;3.60;2.42;;;11.60;97.60;;;;;;4977838;28;20038;-85
2023/10/22 02:55:43;;;;;;;3.45;1.95;;;11.60;97.80;;;;;;4977176;28;20058;-85
2023/10/22 02:58:09;;;;;;;4.30;2.33;;;11.60;97.40;;;;;;4962644;28;20046;-85
2023/10/22 03:00:35;;;;;;;3.22;2.20;;;11.60;97.80;;;;;;4945333;28;20042;-86
2023/10/22 03:03:04;;;;;;;4.28;2.50;;;11.50;97.70;;;;;;4962018;28;20038;-84
2023/10/22 03:05:33;;;;;;;4.85;2.20;;;11.60;97.80;;;;;;4961416;28;20041;-85
2023/10/22 03:08:00;;;;;;;6.57;3.05;;;11.60;97.70;;;;;;4977262;28;20046;-85
2023/10/22 03:10:26;;;;;;;7.20;2.70;;;11.60;97.70;;;;;;4960994;28;20125;-85
2023/10/22 03:12:52;;;;;;;5.25;2.50;;;11.60;97.70;;;;;;4976881;28;20137;-85
2023/10/22 03:15:18;;;;;;;2.95;2.10;;;11.60;98.20;;;;;;4977148;28;20046;-84
2023/10/22 03:17:44;;;;;;;3.33;2.28;;;11.60;97.70;;;;;;4945131;28;20497;-85
2023/10/22 03:20:10;;;;;;;6.28;2.88;;;11.70;97.80;;;;;;4961965;28;20133;-85
2023/10/22 03:22:36;;;;;;;4.85;2.60;;;11.70;98.10;;;;;;4977011;28;20050;-85
2023/10/22 03:25:07;;;;;;;4.40;2.55;;;11.60;98.00;;;;;;4976830;28;20057;-85
2023/10/22 03:27:33;;;;;;;7.28;3.60;;;11.70;97.90;;;;;;4993300;28;20088;-85
2023/10/22 03:29:59;;;;;;;4.25;2.70;;;11.70;98.30;;;;;;4993076;28;20038;-85
2023/10/22 03:32:25;;;;;;;6.68;3.10;;;11.70;98.30;;;;;;4961400;28;20034;-85
2023/10/22 03:34:50;;;;;;;6.03;3.03;;;11.70;98.30;;;;;;4960710;28;20038;-84
2023/10/22 03:37:17;;;;;;;4.90;3.47;;;11.70;98.10;;;;;;4993007;28;20088;-84
2023/10/22 03:39:43;;;;;;;8.65;3.80;;;11.70;98.20;;;;;;4978198;28;20100;-83
2023/10/22 03:42:08;;;;;;;7.55;3.72;;;11.70;98.10;;;;;;4978449;28;20042;-85
2023/10/22 03:44:34;;;;;;;5.80;2.58;;;11.70;98.40;;;;;;4960550;28;20446;-85
2023/10/22 03:47:00;;;;;;;5.90;3.33;;;11.70;98.10;;;;;;4945538;28;20133;-85
2023/10/22 03:49:25;;;;;;;8.07;3.85;;;11.70;98.20;;;;;;4976790;28;20395;-84
2023/10/22 03:51:51;;;;;;;5.55;3.65;;;11.80;98.60;;;;;;4978328;28;20093;-85
2023/10/22 03:54:17;;;;;;;5.15;3.38;;;11.70;98.30;;;;;;4964436;28;20049;-85
2023/10/22 03:56:42;;;;;;;6.75;3.88;;;11.80;98.50;;;;;;4928839;28;20146;-85
2023/10/22 03:59:08;;;;;;;5.97;3.80;;;11.80;98.70;;;;;;4960857;28;20050;-84
2023/10/22 04:01:34;;;;;;;9.30;4.65;;;11.80;98.60;;;;;;4961466;28;20149;-84
2023/10/22 04:03:59;;;;;;;7.00;4.40;;;11.80;98.70;;;;;;4960415;28;20077;-86
2023/10/22 04:06:25;;;;;;;7.25;5.03;;;11.80;98.70;;;;;;4976739;28;20133;-87
2023/10/22 04:08:50;;;;;;;6.85;4.72;;;11.80;98.70;;;;;;4976846;28;20065;-85
2023/10/22 04:11:20;;;;;;;8.10;5.40;;;11.80;98.60;;;;;;4976685;28;20035;-84
2023/10/22 04:13:45;;;;;;;8.35;5.32;;;11.90;98.70;;;;;;4961532;28;20042;-86
2023/10/22 04:16:15;;;;;;;7.43;6.10;;;11.80;98.60;;;;;;4932551;28;20034;-86
2023/10/22 04:18:41;;;;;;;12.65;6.63;;;11.90;98.60;;;;;;4960680;28;20042;-84
2023/10/22 04:21:14;;;;;;;11.18;7.30;;;12.00;99.10;;;;;;4980281;28;20053;-86
2023/10/22 04:23:40;;;;;;;10.38;7.10;;;12.00;98.90;;;;;;4947849;28;20084;-85
2023/10/22 04:26:13;;;;;;;8.75;7.00;;;12.00;98.90;;;;;;4964343;28;20042;-85
2023/10/22 04:28:40;;;;;;;11.77;7.55;;;12.00;98.90;;;;;;4980382;28;20121;-86
2023/10/22 04:31:07;;;;;;;9.30;7.57;;;12.00;98.70;;;;;;4980175;28;20038;-84
2023/10/22 04:33:33;;;;;;;12.80;8.63;;;12.10;98.80;;;;;;4963981;28;20043;-86
2023/10/22 04:35:59;;;;;;;11.77;8.63;;;12.00;98.60;;;;;;4996305;28;20043;-85
2023/10/22 04:38:24;;;;;;;12.27;9.32;;;12.10;98.90;;;;;;4963876;28;20042;-84
2023/10/22 04:40:50;;;;;;;12.07;9.80;;;12.10;98.90;;;;;;4980134;28;20053;-86
2023/10/22 04:43:16;;;;;;;13.13;10.82;;;12.10;98.90;;;;;;4980215;28;20065;-86
2023/10/22 04:45:51;;;;;;;14.27;12.32;;;12.10;98.80;;;;;;4963813;28;20064;-84
2023/10/22 04:48:17;;;;;;;16.75;11.95;;;12.20;98.80;;;;;;4981092;28;20038;-86
2023/10/22 04:50:44;;;;;;;15.40;12.40;;;12.20;99.00;;;;;;4948023;28;20042;-84
2023/10/22 04:53:10;;;;;;;18.95;13.57;;;12.20;98.70;;;;;;4963763;28;20076;-85
2023/10/22 04:55:36;;;;;;;19.00;13.85;;;12.20;98.70;;;;;;4947712;28;20399;-85
2023/10/22 04:58:02;;;;;;;17.58;14.00;;;12.30;98.90;;;;;;4964599;28;20061;-85
2023/10/22 05:00:28;;;;;;;21.88;13.02;;;12.30;98.50;;;;;;4963430;28;20129;-85
2023/10/22 05:02:54;;;;;;;15.70;12.82;;;12.40;98.40;;;;;;4966761;28;20077;-86
2023/10/22 05:05:21;;;;;;;16.58;11.63;;;12.30;98.60;;;;;;4963239;28;20042;-86
2023/10/22 05:07:49;;;;;;;16.27;11.75;;;12.50;98.60;;;;;;4948597;28;20038;-85
2023/10/22 05:10:15;;;;;;;12.73;9.82;;;12.50;98.70;;;;;;4964969;28;20035;-85
2023/10/22 05:12:41;;;;;;;12.10;8.75;;;12.50;98.20;;;;;;4979916;28;20459;-85
2023/10/22 05:15:08;;;;;;;5.90;3.58;;;12.50;98.20;;;;;;4979458;28;20081;-85
2023/10/22 05:17:34;;;;;;;5.35;2.13;;;12.50;98.00;;;;;;4979607;28;20105;-85
2023/10/22 05:20:00;;;;;;;4.20;1.60;;;12.50;97.60;;;;;;4979169;28;20034;-84
2023/10/22 05:22:25;;;;;;;6.13;1.55;;;12.50;97.40;;;;;;4963301;28;20069;-85
2023/10/22 05:24:51;;;;;;;2.80;1.50;;;12.40;97.30;;;;;;4962863;28;20128;-85
2023/10/22 05:27:17;;;;;;;6.15;2.00;;;12.30;97.30;;;;;;4947050;28;20045;-85
2023/10/22 05:29:45;;;;;;;5.40;1.80;;;12.20;97.10;;;;;;4983089;28;20089;-84
2023/10/22 05:32:14;;;;;;;5.68;1.98;;;12.10;97.00;;;;;;4978680;28;20038;-85
2023/10/22 05:34:41;;;;;;;6.60;2.28;;;12.10;97.00;;;;;;4962922;28;20516;-84
2023/10/22 05:37:07;;;;;;;3.40;1.55;;;12.00;97.00;;;;;;4995441;28;20054;-84
2023/10/22 05:39:33;;;;;;;9.40;2.08;;;12.00;97.00;;;;;;4994877;28;20078;-83
2023/10/22 05:41:59;;;;;;;9.70;2.20;;;12.00;97.00;;;;;;4931534;28;20039;-83
2023/10/22 05:44:24;;;;;;;9.45;2.30;;;11.90;97.00;;;;;;4979139;28;20153;-83
2023/10/22 05:46:50;;;;;;;5.13;1.85;;;11.90;96.90;;;;;;4978908;28;20383;-83
2023/10/22 05:49:17;;;;;;;8.73;2.35;;;12.00;96.90;;;;;;4979020;28;20111;-84
2023/10/22 05:51:42;;;;;;;8.30;2.30;;;12.00;96.80;;;;;;4981292;28;20042;-84
2023/10/22 05:54:08;;;;;;;10.52;2.67;;;12.00;96.80;;;;;;4962904;28;20513;-84
2023/10/22 05:56:34;;;;;;;9.82;1.98;;;11.90;96.90;;;;;;4978235;28;20413;-85
2023/10/22 05:59:04;;;;;;;15.07;3.05;;;11.90;97.00;;;;;;4962363;28;20085;-86
2023/10/22 06:01:30;;;;;;;10.55;2.90;;;11.90;97.10;;;;;;4965284;28;20050;-84
2023/10/22 06:03:55;;;;;;;10.00;2.50;;;11.90;97.10;;;;;;4962559;28;20047;-84
2023/10/22 06:06:22;;;;;;;9.10;2.20;;;12.00;97.10;;;;;;4946271;28;20034;-86
2023/10/22 06:08:47;;;;;;;4.65;1.85;;;12.00;97.20;;;;;;4979095;28;20046;-85
2023/10/22 06:11:14;;;;;;;7.65;2.30;;;12.00;97.10;;;;;;4946574;28;20038;-84
2023/10/22 06:13:40;;;;;;;3.05;1.70;;;12.00;97.00;;;;;;4980321;28;20445;-84
2023/10/22 06:16:07;;;;;;;4.70;1.48;;;12.00;97.00;;;;;;4963290;28;20046;-86
2023/10/22 06:18:33;;;;;;;4.80;1.60;;;12.00;96.80;;;;;;4967710;28;20046;-85
2023/10/22 06:20:59;;;;;;;4.05;1.85;;;12.00;96.60;;;;;;4977816;28;20080;-86
2023/10/22 06:23:24;;;;;;;3.38;1.40;;;12.00;96.30;;;;;;4945363;28;20418;-85
2023/10/22 06:25:50;;;;;;;4.95;2.05;;;12.00;96.40;;;;;;4963120;28;20042;-84
2023/10/22 06:28:19;;;;;;;3.95;1.65;;;12.00;96.50;;;;;;4977856;28;20101;-85
2023/10/22 06:30:44;;;;;;;7.05;2.08;;;12.00;96.30;;;;;;4978516;28;20038;-83
2023/10/22 06:33:13;;;;;;;8.40;2.10;;;12.00;96.40;;;;;;4931084;28;20078;-84
2023/10/22 06:35:39;;;;;;;10.32;1.98;;;12.00;96.40;;;;;;4930937;28;20127;-83
2023/10/22 06:38:04;;;;;;;7.55;2.67;;;11.90;96.50;;;;;;4967440;28;20046;-85
2023/10/22 06:40:34;;;;;;;4.40;1.92;;;11.80;96.50;;;;;;4961776;28;20050;-85
2023/10/22 06:42:59;;;;;;;7.35;3.10;;;11.80;96.70;;;;;;4977266;28;20039;-86
2023/10/22 06:45:25;;;;;;;7.97;3.13;;;11.80;96.50;;;;;;4977703;28;20042;-86
2023/10/22 06:47:51;;;;;;;6.85;2.30;;;11.80;96.60;;;;;;4945895;28;20042;-85
2023/10/22 06:50:17;;;;;;;13.20;2.90;;;11.80;96.70;;;;;;4962801;28;20041;-84
2023/10/22 06:52:42;;;;;;;10.63;3.67;;;11.80;96.70;;;;;;4929955;28;20095;-87
2023/10/22 06:55:09;;;;;;;7.20;2.65;;;11.80;96.50;;;;;;4948828;28;20167;-84
2023/10/22 06:57:35;;;;;;;6.93;3.08;;;11.80;96.60;;;;;;4977997;28;20038;-84
2023/10/22 07:00:02;;;;;;;7.95;3.83;;;11.90;96.50;;;;;;4961517;28;20050;-83
2023/10/22 07:02:27;;;;;;;14.43;3.65;;;11.80;96.40;;;;;;4977602;28;20085;-85
2023/10/22 07:04:54;;;;;;;11.07;3.53;;;11.80;96.40;;;;;;4994703;28;20085;-85
2023/10/22 07:07:20;;;;;;;11.85;2.72;;;11.70;96.50;;;;;;4961293;28;20367;-84
2023/10/22 07:09:47;;;;;;;8.93;4.10;;;11.80;96.60;;;;;;4963312;28;20034;-86
2023/10/22 07:12:12;;;;;;;11.85;4.82;;;11.70;96.60;;;;;;4961325;28;20049;-86
2023/10/22 07:14:38;;;;;;;13.48;4.03;;;11.70;96.70;;;;;;4929340;28;20042;-85
2023/10/22 07:17:04;;;;;;;9.95;3.40;;;11.70;96.90;;;;;;4945214;28;20034;-86
2023/10/22 07:19:30;;;;;;;11.90;3.38;;;11.80;96.90;;;;;;4930293;28;20049;-86
2023/10/22 07:21:56;;;;;;;11.48;3.72;;;11.80;96.90;;;;;;4962633;28;20049;-85
2023/10/22 07:24:22;;;;;;;9.27;3.50;;;11.70;97.00;;;;;;4961005;28;20050;-86
2023/10/22 07:26:48;;;;;;;10.70;4.10;;;11.80;97.00;;;;;;4981231;28;20483;-85
2023/10/22 07:29:13;;;;;;;8.80;4.30;;;11.70;97.00;;;;;;4977174;28;20091;-84
2023/10/22 07:31:39;;;;;;;6.75;3.75;;;11.70;97.00;;;;;;4976184;28;20088;-83
2023/10/22 07:34:06;;;;;;;4.78;2.70;;;11.70;97.00;;;;;;4993827;28;20105;-85
2023/10/22 07:36:32;;;;;;;8.05;3.03;;;11.70;97.00;;;;;;4962370;28;20379;-85
2023/10/22 07:38:57;;;;;;;8.80;3.05;;;11.70;96.30;;;;;;4978115;28;20052;-86
2023/10/22 07:41:24;;;;;;;5.82;2.63;;;11.70;96.60;;;;;;4994025;28;20046;-86
2023/10/22 07:43:50;;;;;;;11.85;2.88;;;11.70;96.30;;;;;;4979432;28;20116;-84
2023/10/22 07:46:16;;;;;;;11.07;2.47;;;11.70;95.80;;;;;;4983556;28;20474;-84
2023/10/22 07:48:42;;;;;;;7.45;2.05;;;11.80;94.80;;;;;;4980443;28;20042;-84
2023/10/22 07:51:19;;;;;;;11.52;3.40;;;11.90;95.60;;;;;;4995677;28;20083;-85
2023/10/22 07:53:46;;;;;;;6.97;3.05;;;11.90;95.10;;;;;;4996110;28;20391;-85
2023/10/22 07:56:14;;;;;;;6.28;1.67;;;11.90;95.10;;;;;;5002864;28;20054;-85
2023/10/22 07:58:40;;;;;;;6.30;1.45;;;12.00;94.90;;;;;;5000674;28;20124;-85
2023/10/22 08:01:06;;;;;;;5.22;1.52;;;12.00;94.60;;;;;;5017290;28;20184;-83
2023/10/22 08:03:32;;;;;;;4.43;1.58;;;12.00;94.30;;;;;;5015806;28;20517;-85
2023/10/22 08:05:59;;;;;;;6.93;1.63;;;12.00;94.10;;;;;;4983598;28;20125;-85
2023/10/22 08:08:25;;;;;;;8.63;2.22;;;12.10;93.90;;;;;;4983686;28;20061;-85
2023/10/22 08:10:55;;;;;;;8.60;1.83;;;12.00;93.80;;;;;;4983496;28;20033;-85
2023/10/22 08:13:20;;;;;;;5.47;1.45;;;12.00;93.60;;;;;;4999475;28;20038;-85
2023/10/22 08:15:47;;;;;;;7.75;1.58;;;12.00;93.70;;;;;;5016135;28;20091;-85
2023/10/22 08:18:13;;;;;;;7.10;1.40;;;12.00;93.70;;;;;;4970118;28;20517;-86
2023/10/22 08:20:38;;;;;;;6.80;1.92;;;12.00;93.60;;;;;;4984237;28;20073;-86
2023/10/22 08:23:04;;;;;;;8.27;1.20;;;12.00;93.10;;;;;;4985851;28;20402;-86
2023/10/22 08:25:30;;;;;;;5.97;1.45;;;12.00;93.20;;;;;;4967222;28;20501;-85
2023/10/22 08:27:56;;;;;;;5.63;1.27;;;12.00;93.10;;;;;;4983527;28;20046;-85
2023/10/22 08:30:22;;;;;;;6.60;1.30;;;12.10;93.30;;;;;;4985785;28;20124;-86
2023/10/22 08:32:48;;;;;;;3.58;2.22;;;12.10;92.70;;;;;;5017500;28;20457;-86
2023/10/22 08:35:14;;;;;;;3.40;1.08;;;12.10;93.00;;;;;;4989617;28;20075;-86
2023/10/22 08:37:41;;;;;;;5.25;2.03;;;12.20;92.40;;;;;;5000012;28;20087;-86
2023/10/22 08:40:10;;;;;;;8.00;3.33;;;12.20;91.30;;;;;;4998968;28;20041;-86
2023/10/22 08:42:37;;;;;;;3.88;1.30;;;12.20;91.60;;;;;;4998941;28;20042;-85
2023/10/22 08:45:04;;;;;;;4.55;1.98;;;12.30;91.20;;;;;;4999135;28;20042;-85
2023/10/22 08:47:30;;;;;;;9.27;2.45;;;12.30;89.20;;;;;;4987744;28;20049;-86
2023/10/22 08:49:56;;;;;;;7.10;2.47;;;12.30;89.60;;;;;;5001796;28;20038;-86
2023/10/22 08:52:23;;;;;;;7.25;2.13;;;12.40;88.80;;;;;;4982679;28;20044;-85
2023/10/22 08:54:49;;;;;;;4.03;1.50;;;12.50;89.20;;;;;;4982761;28;20398;-86
2023/10/22 08:57:16;;;;;;;6.07;1.80;;;12.50;88.70;;;;;;4954403;28;20045;-85
2023/10/22 08:59:43;;;;;;;3.80;1.73;;;12.50;87.90;;;;;;5000271;28;20108;-86
2023/10/22 09:02:11;;;;;;;7.47;1.40;;;12.60;87.40;;;;;;4996784;28;20126;-86
2023/10/22 09:04:38;;;;;;;4.18;1.10;;;12.70;86.60;;;;;;4982771;28;20487;-86
2023/10/22 09:07:04;;;;;;;5.65;1.50;;;12.70;86.30;;;;;;4946468;28;20050;-84
2023/10/22 09:09:32;;;;;;;4.20;0.80;;;12.80;85.70;;;;;;4947496;28;20043;-85
2023/10/22 09:11:59;;;;;;;6.43;1.05;;;13.00;84.70;;;;;;4978078;28;20038;-86
2023/10/22 09:14:26;;;;;;;3.67;1.10;;;13.00;84.20;;;;;;4964528;28;20057;-85
2023/10/22 09:16:55;;;;;;;5.38;1.40;;;13.10;84.10;;;;;;4980895;28;20046;-84
2023/10/22 09:19:38;;;;;;;6.93;1.10;;;13.20;84.10;;;;;;4986247;28;20042;-85
2023/10/22 09:22:07;;;;;;;5.22;1.10;;;13.30;83.40;;;;;;4991929;28;20398;-86
2023/10/22 09:24:34;;;;;;;4.07;1.10;;;13.40;82.80;;;;;;4999453;28;20124;-85
2023/10/22 09:27:00;;;;;;;2.95;1.00;;;13.50;82.10;;;;;;4998032;28;20514;-82
2023/10/22 09:29:26;;;;;;;6.82;1.52;;;13.50;82.30;;;;;;4981943;28;20045;-83
2023/10/22 09:31:53;;;;;;;2.80;0.70;;;13.60;82.60;;;;;;4949885;28;20092;-84
2023/10/22 09:34:31;;;;;;;3.67;0.90;;;13.70;81.90;;;;;;4983274;28;20061;-84
2023/10/22 09:36:58;;;;;;;4.05;0.93;;;13.90;81.80;;;;;;4951305;28;20034;-84
2023/10/22 09:39:43;;;;;;;2.38;0.68;;;14.00;80.60;;;;;;5002274;28;20482;-84
2023/10/22 09:42:10;;;;;;;3.45;1.17;;;13.90;78.10;;;;;;5007284;28;20030;-84
2023/10/22 09:44:37;;;;;;;5.70;1.77;;;14.00;78.30;;;;;;5023151;28;20021;-84
2023/10/22 09:47:07;;;;;;;3.05;1.17;;;13.90;78.60;;;;;;4989611;28;20046;-85
2023/10/22 09:49:35;;;;;;;4.90;1.48;;;14.00;77.60;;;;;;4985054;28;20100;-85
2023/10/22 09:52:06;;;;;;;4.97;0.70;;;14.00;77.50;;;;;;5006937;28;20018;-84
2023/10/22 09:54:36;;;;;;;3.20;1.00;;;14.00;76.30;;;;;;5023744;28;20049;-83
2023/10/22 09:57:08;;;;;;;5.53;1.70;;;14.00;76.00;;;;;;5005975;28;20042;-87
2023/10/22 09:59:34;;;;;;;9.15;1.45;;;14.00;76.20;;;;;;5022961;28;20036;-86
2023/10/22 10:02:00;;;;;;;3.15;1.00;;;14.00;76.10;;;;;;5005663;28;20042;-85
2023/10/22 10:04:26;;;;;;;6.90;1.48;;;14.10;75.80;;;;;;5004691;28;20029;-84
2023/10/22 10:06:56;;;;;;;4.40;1.70;;;14.20;77.30;;;;;;5021811;28;20026;-80
2023/10/22 10:09:23;;;;;;;6.25;1.85;;;14.20;78.10;;;;;;4970785;28;20041;-85
2023/10/22 10:11:50;;;;;;;7.65;1.63;;;14.30;78.30;;;;;;4998821;28;20073;-84
2023/10/22 10:14:49;;;;;;;6.18;1.23;;;14.40;77.20;;;;;;4966719;28;20049;-84
2023/10/22 10:17:17;;;;;;;4.30;1.20;;;14.40;77.30;;;;;;4930194;28;20054;-85
2023/10/22 10:19:43;;;;;;;2.83;1.13;;;14.30;77.20;;;;;;4997114;28;20038;-84
2023/10/22 10:22:09;;;;;;;3.58;1.10;;;14.30;76.70;;;;;;4981063;28;20045;-84
2023/10/22 10:24:36;;;;;;;5.00;1.00;;;14.20;77.40;;;;;;4997670;28;20540;-85
2023/10/22 10:27:01;;;;;;;3.42;1.38;;;13.90;77.50;;;;;;4981018;28;20038;-84
2023/10/22 10:29:29;;;;;;;6.47;1.10;;;13.70;78.40;;;;;;4997159;28;20180;-83
2023/10/22 10:32:19;;;;;;;4.82;1.02;;;13.50;79.10;;;;;;4997080;28;20053;-85
2023/10/22 10:34:47;;;;;;;4.80;1.35;;;13.40;80.00;;;;;;4998585;28;20364;-84
2023/10/22 10:37:18;;;;;;;4.15;1.38;;;13.30;80.00;;;;;;4998226;28;20081;-83
2023/10/22 10:39:53;;;;;;;6.72;2.03;;;13.20;79.70;;;;;;4965270;28;20038;-83
2023/10/22 10:42:31;;;;;;;3.42;1.27;;;13.20;80.10;;;;;;4996693;28;20041;-83
2023/10/22 10:45:02;;;;;;;5.53;1.40;;;13.10;80.50;;;;;;4996612;28;20129;-85
2023/10/22 10:47:39;;;;;;;6.00;1.10;;;13.20;79.80;;;;;;4996555;28;20038;-84
2023/10/22 10:50:10;;;;;;;4.43;1.25;;;13.10;79.40;;;;;;4996104;28;20042;-86
2023/10/22 10:52:42;;;;;;;4.88;1.40;;;13.20;80.10;;;;;;4998057;28;20501;-84
2023/10/22 10:55:14;;;;;;;3.03;1.00;;;13.30;79.70;;;;;;4996683;28;20448;-84
2023/10/22 10:57:42;;;;;;;4.25;1.05;;;13.40;79.50;;;;;;4998247;28;20046;-85
2023/10/22 11:00:09;;;;;;;1.08;0.50;;;13.50;77.90;;;;;;4965105;28;20050;-83
2023/10/22 11:02:46;;;;;;;2.10;0.70;;;13.60;76.10;;;;;;4965184;28;20050;-84
2023/10/22 11:05:12;;;;;;;3.78;0.60;;;13.70;75.70;;;;;;5013325;28;20068;-84
2023/10/22 11:07:39;;;;;;;1.00;0.45;;;14.00;75.50;;;;;;5000454;28;20048;-84
2023/10/22 11:10:16;;;;;;;2.33;0.52;;;14.10;72.80;;;;;;4971289;28;20077;-84
2023/10/22 11:12:43;;;;;;;1.88;0.50;;;14.30;72.00;;;;;;5003732;28;20045;-83
2023/10/22 11:15:14;;;;;;;1.50;0.50;;;14.20;69.70;;;;;;4987237;28;20046;-83
2023/10/22 11:17:41;;;;;;;2.58;0.70;;;14.20;69.60;;;;;;4965890;28;20041;-83
2023/10/22 11:20:08;;;;;;;1.05;0.50;;;14.20;70.40;;;;;;4996174;28;20248;-84
2023/10/22 11:22:35;;;;;;;2.05;0.63;;;14.20;69.30;;;;;;4997366;28;20045;-84
2023/10/22 11:25:09;;;;;;;2.10;0.75;;;14.30;67.50;;;;;;4996881;28;20077;-85
2023/10/22 11:27:39;;;;;;;1.27;0.60;;;14.50;67.90;;;;;;4965296;28;20414;-85
2023/10/22 11:30:06;;;;;;;0.88;0.60;;;14.60;66.40;;;;;;4979099;28;20273;-85
2023/10/22 11:32:34;;;;;;;2.47;0.45;;;14.70;65.40;;;;;;4996447;28;20084;-85
2023/10/22 11:35:08;;;;;;;;;;;14.70;66.30;;;;;;5012776;28;20080;-84
2023/10/22 11:37:43;;;;;;;2.45;0.70;;;14.90;66.80;;;;;;4995989;28;19917;-84
2023/10/22 11:40:34;;;;;;;2.75;0.80;;;15.10;65.80;;;;;;4980254;28;20050;-85
2023/10/22 11:43:17;;;;;;;3.45;0.65;;;15.40;65.20;;;;;;4996945;28;20042;-84
2023/10/22 11:45:56;;;;;;;2.67;0.77;;;15.60;66.00;;;;;;4980334;28;20044;-85
2023/10/22 11:48:24;;;;;;;2.60;0.90;;;15.70;65.30;;;;;;5003374;28;20069;-85
2023/10/22 11:51:00;;;;;;;2.60;0.50;;;15.90;65.50;;;;;;5007511;28;20048;-83
2023/10/22 11:53:45;;;;;;;1.73;0.68;;;16.00;65.70;;;;;;4957292;28;20129;-84
2023/10/22 11:56:11;;;;;;;1.98;0.60;;;16.20;65.70;;;;;;4992508;28;20054;-85
2023/10/22 11:58:37;;;;;;;1.55;0.65;;;16.20;64.00;;;;;;4960496;28;20038;-84
2023/10/22 12:01:02;;;;;;;0.75;0.52;;;16.30;64.00;;;;;;4976600;28;20372;-85
2023/10/22 12:03:28;;;;;;;1.98;0.90;;;16.30;64.50;;;;;;4960356;28;20495;-85
2023/10/22 12:05:54;;;;;;;3.58;0.85;;;16.40;64.00;;;;;;4964944;28;20098;-84
2023/10/22 12:08:19;;;;;;;3.10;0.73;;;16.50;62.70;;;;;;4964681;28;20042;-85
2023/10/22 12:10:45;;;;;;;1.80;0.60;;;16.50;62.30;;;;;;4976364;28;20502;-85
2023/10/22 12:13:11;;;;;;;2.13;0.65;;;16.60;62.60;;;;;;4960258;28;20395;-83
2023/10/22 12:15:37;;;;;;;1.98;0.70;;;16.60;61.80;;;;;;4976068;28;20073;-83
2023/10/22 12:18:04;;;;;;;3.72;0.98;;;16.60;62.60;;;;;;4975889;28;20140;-84
2023/10/22 12:20:30;;;;;;;1.77;0.50;;;16.60;63.30;;;;;;4992620;28;20080;-83
2023/10/22 12:22:56;;;;;;;1.15;0.85;;;16.50;64.00;;;;;;4982089;28;20106;-84
2023/10/22 12:25:22;;;;;;;1.70;0.75;;;16.60;65.60;;;;;;4980956;28;20049;-83
2023/10/22 12:27:48;;;;;;;2.05;0.80;;;16.50;64.10;;;;;;4994899;28;20121;-83
2023/10/22 12:30:14;;;;;;;1.70;0.70;;;16.50;64.90;;;;;;4960527;28;20034;-83
2023/10/22 12:32:40;;;;;;;4.30;0.80;;;16.40;65.20;;;;;;4944101;28;20030;-85
2023/10/22 12:35:06;;;;;;;2.05;0.65;;;16.10;65.60;;;;;;4962068;28;20046;-84
2023/10/22 12:37:32;;;;;;;3.80;1.20;;;15.70;66.50;;;;;;4962882;28;20483;-84
2023/10/22 12:39:58;;;;;;;3.10;0.80;;;15.50;67.30;;;;;;4960126;28;20092;-84
2023/10/22 12:42:23;;;;;;;2.67;1.05;;;15.40;67.80;;;;;;4962092;28;20049;-84
2023/10/22 12:44:49;;;;;;;3.80;1.20;;;15.40;68.80;;;;;;4965538;28;20046;-85
2023/10/22 12:47:15;;;;;;;4.13;1.20;;;15.60;69.50;;;;;;4966369;28;20053;-84